Time;durP1;ratioP1;P1;durP2;ratioP2;P2;SDS_P1;SDS_P2;PMS_P1;PMS_P2;Temp;Humidity;BMP_temperature;BMP_pressure;BME280_temperature;BME280_humidity;BME280_pressure;Samples;Min_cycle;Max_cycle;Signal;HPM_P1;HPM_P2
2024/01/06 00:01:21;;;;;;;13.90;7.33;;;6.50;99.90;;;;;;5032347;28;20426;-55
2024/01/06 00:03:47;;;;;;;13.80;6.03;;;6.50;99.90;;;;;;5032354;28;20030;-56
2024/01/06 00:06:16;;;;;;;14.23;6.10;;;6.50;99.90;;;;;;5032396;28;20061;-55
2024/01/06 00:08:41;;;;;;;14.30;7.13;;;6.50;99.90;;;;;;5032065;28;20025;-55
2024/01/06 00:11:07;;;;;;;13.13;6.53;;;6.50;99.90;;;;;;5032222;28;20116;-54
2024/01/06 00:13:33;;;;;;;13.97;6.17;;;6.50;99.90;;;;;;5032152;28;20044;-55
2024/01/06 00:16:00;;;;;;;14.70;6.70;;;6.50;99.90;;;;;;5030909;28;20037;-52
2024/01/06 00:18:25;;;;;;;13.60;6.50;;;6.50;99.90;;;;;;5031983;28;20034;-55
2024/01/06 00:20:51;;;;;;;17.23;7.30;;;6.50;99.90;;;;;;5032031;28;20148;-53
2024/01/06 00:23:17;;;;;;;15.97;7.03;;;6.50;99.90;;;;;;5031920;28;20025;-54
2024/01/06 00:25:42;;;;;;;14.13;7.03;;;6.50;99.90;;;;;;5032106;28;20501;-53
2024/01/06 00:28:08;;;;;;;12.97;6.47;;;6.50;99.90;;;;;;5032038;28;20056;-52
2024/01/06 00:30:33;;;;;;;13.33;6.43;;;6.50;99.90;;;;;;5031806;28;20059;-55
2024/01/06 00:32:59;;;;;;;14.33;6.60;;;6.50;99.90;;;;;;5031884;28;20025;-54
2024/01/06 00:35:25;;;;;;;16.43;7.13;;;6.50;99.90;;;;;;5031873;28;20079;-53
2024/01/06 00:37:50;;;;;;;17.00;7.17;;;6.50;99.90;;;;;;5031779;28;20025;-54
2024/01/06 00:40:16;;;;;;;15.20;7.07;;;6.50;99.90;;;;;;5032066;28;20071;-55
2024/01/06 00:42:41;;;;;;;14.53;6.83;;;6.60;99.90;;;;;;5033588;28;20030;-51
2024/01/06 00:45:07;;;;;;;17.30;6.90;;;6.60;99.90;;;;;;5038504;28;20025;-54
2024/01/06 00:47:33;;;;;;;17.23;6.97;;;6.60;99.90;;;;;;5038518;28;20033;-55
2024/01/06 00:49:59;;;;;;;15.37;6.63;;;6.60;99.90;;;;;;5038222;28;20367;-55
2024/01/06 00:52:24;;;;;;;17.17;6.80;;;6.60;99.90;;;;;;5038262;28;20057;-53
2024/01/06 00:54:50;;;;;;;14.67;7.10;;;6.60;99.90;;;;;;5038281;28;20029;-54
2024/01/06 00:57:15;;;;;;;16.73;7.73;;;6.60;99.90;;;;;;5038386;28;20546;-52
2024/01/06 00:59:41;;;;;;;15.37;6.90;;;6.60;99.90;;;;;;5038081;28;20044;-55
2024/01/06 01:02:07;;;;;;;18.13;8.20;;;6.60;99.90;;;;;;5037089;28;20037;-54
2024/01/06 01:04:32;;;;;;;16.63;7.40;;;6.60;99.90;;;;;;5038398;28;20030;-52
2024/01/06 01:06:58;;;;;;;15.37;7.23;;;6.60;99.90;;;;;;5038183;28;20468;-52
2024/01/06 01:09:23;;;;;;;20.83;7.80;;;6.60;99.90;;;;;;5037974;28;20029;-51
2024/01/06 01:11:49;;;;;;;15.80;7.73;;;6.50;99.90;;;;;;5038417;28;20116;-55
2024/01/06 01:14:15;;;;;;;19.63;8.13;;;6.60;99.90;;;;;;5038145;28;20433;-55
2024/01/06 01:16:40;;;;;;;17.97;7.87;;;6.60;99.90;;;;;;5038257;28;20116;-56
2024/01/06 01:19:06;;;;;;;20.80;9.47;;;6.50;99.90;;;;;;5037735;28;20060;-53
2024/01/06 01:21:31;;;;;;;18.13;8.13;;;6.50;99.90;;;;;;5038063;28;20030;-50
2024/01/06 01:23:57;;;;;;;18.63;8.80;;;6.50;99.90;;;;;;5038033;28;20017;-54
2024/01/06 01:26:22;;;;;;;20.60;8.53;;;6.50;99.90;;;;;;5038163;28;20490;-51
2024/01/06 01:28:48;;;;;;;22.63;9.20;;;6.50;99.90;;;;;;5038207;28;20037;-54
2024/01/06 01:31:14;;;;;;;23.17;9.30;;;6.50;99.90;;;;;;5038022;28;20037;-55
2024/01/06 01:33:39;;;;;;;19.53;8.80;;;6.50;99.90;;;;;;5038005;28;20037;-55
2024/01/06 01:36:05;;;;;;;21.30;8.87;;;6.50;99.90;;;;;;5037850;28;20029;-54
2024/01/06 01:38:31;;;;;;;25.67;8.63;;;6.50;99.90;;;;;;5037748;28;20030;-55
2024/01/06 01:40:56;;;;;;;21.67;8.73;;;6.50;99.90;;;;;;5037897;28;20029;-55
2024/01/06 01:43:23;;;;;;;20.10;8.43;;;6.50;99.90;;;;;;5037910;28;20037;-51
2024/01/06 01:45:53;;;;;;;20.20;8.70;;;6.50;99.90;;;;;;5037891;28;20041;-55
2024/01/06 01:48:20;;;;;;;21.83;8.70;;;6.50;99.90;;;;;;5037920;28;20398;-56
2024/01/06 01:50:46;;;;;;;19.67;8.13;;;6.50;99.90;;;;;;5037591;28;20039;-54
2024/01/06 01:53:13;;;;;;;24.07;9.00;;;6.50;99.90;;;;;;5037687;28;20034;-55
2024/01/06 01:55:40;;;;;;;20.33;8.53;;;6.50;99.90;;;;;;5034912;28;20116;-53
2024/01/06 01:58:06;;;;;;;20.30;8.60;;;6.50;99.90;;;;;;5034682;28;20041;-55
2024/01/06 02:00:32;;;;;;;19.27;8.23;;;6.40;99.90;;;;;;5034441;28;20084;-54
2024/01/06 02:02:59;;;;;;;20.83;8.83;;;6.50;99.90;;;;;;5034529;28;20025;-54
2024/01/06 02:05:25;;;;;;;19.30;8.27;;;6.40;99.90;;;;;;5034403;28;20115;-55
2024/01/06 02:07:51;;;;;;;20.33;8.43;;;6.50;99.90;;;;;;5034482;28;20039;-55
2024/01/06 02:10:17;;;;;;;21.37;8.67;;;6.40;99.90;;;;;;5034322;28;20079;-56
2024/01/06 02:12:43;;;;;;;23.50;9.50;;;6.40;99.90;;;;;;5034348;28;20091;-53
2024/01/06 02:15:09;;;;;;;25.87;9.80;;;6.40;99.90;;;;;;5034276;28;20037;-55
2024/01/06 02:17:34;;;;;;;20.07;8.53;;;6.40;99.90;;;;;;5034282;28;20022;-53
2024/01/06 02:20:00;;;;;;;21.43;9.07;;;6.40;99.90;;;;;;5034074;28;20032;-54
2024/01/06 02:22:25;;;;;;;23.87;9.00;;;6.40;99.90;;;;;;5034218;28;20117;-54
2024/01/06 02:24:51;;;;;;;22.90;9.30;;;6.40;99.90;;;;;;5034290;28;20036;-55
2024/01/06 02:27:16;;;;;;;25.10;9.83;;;6.40;99.90;;;;;;5034216;28;20049;-50
2024/01/06 02:29:42;;;;;;;22.27;9.10;;;6.40;99.90;;;;;;5033925;28;20037;-52
2024/01/06 02:32:08;;;;;;;21.73;8.90;;;6.40;99.90;;;;;;5034037;28;20029;-55
2024/01/06 02:34:34;;;;;;;22.70;9.17;;;6.40;99.90;;;;;;5033905;28;20493;-55
2024/01/06 02:37:00;;;;;;;27.20;9.80;;;6.40;99.90;;;;;;5033934;28;20072;-53
2024/01/06 02:39:25;;;;;;;24.90;9.97;;;6.40;99.90;;;;;;5033709;28;20065;-55
2024/01/06 02:41:51;;;;;;;28.07;10.50;;;6.40;99.90;;;;;;5033893;28;20049;-53
2024/01/06 02:44:16;;;;;;;24.33;10.00;;;6.40;99.90;;;;;;5033873;28;20029;-54
2024/01/06 02:46:42;;;;;;;28.17;10.07;;;6.40;99.90;;;;;;5033839;28;20035;-54
2024/01/06 02:49:09;;;;;;;26.93;10.40;;;6.40;99.90;;;;;;5033422;28;20096;-56
2024/01/06 02:51:34;;;;;;;29.53;10.37;;;6.40;99.90;;;;;;5033669;28;20021;-55
2024/01/06 02:54:00;;;;;;;27.97;10.73;;;6.40;99.90;;;;;;5033684;28;20516;-53
2024/01/06 02:56:25;;;;;;;26.33;10.03;;;6.40;99.90;;;;;;5033610;28;20045;-56
2024/01/06 02:58:51;;;;;;;26.87;9.77;;;6.40;99.90;;;;;;5033378;28;20029;-55
2024/01/06 03:01:17;;;;;;;25.33;9.90;;;6.40;99.90;;;;;;5033548;28;20100;-56
2024/01/06 03:03:43;;;;;;;24.17;9.70;;;6.40;99.90;;;;;;5033420;28;20041;-56
2024/01/06 03:06:08;;;;;;;21.70;8.93;;;6.40;99.90;;;;;;5032855;28;20033;-56
2024/01/06 03:08:34;;;;;;;26.67;9.33;;;6.40;99.90;;;;;;5033127;28;20033;-52
2024/01/06 03:11:01;;;;;;;24.50;8.77;;;6.40;99.90;;;;;;5033330;28;20059;-55
2024/01/06 03:13:26;;;;;;;26.07;8.93;;;6.40;99.90;;;;;;5033254;28;20040;-55
2024/01/06 03:15:52;;;;;;;22.73;8.67;;;6.40;99.90;;;;;;5031959;28;20037;-55
2024/01/06 03:18:17;;;;;;;23.67;8.53;;;6.30;99.90;;;;;;5032969;28;20030;-56
2024/01/06 03:20:43;;;;;;;20.70;7.87;;;6.30;99.90;;;;;;5032896;28;20032;-55
2024/01/06 03:23:08;;;;;;;15.97;6.23;;;6.20;99.90;;;;;;5033046;28;20501;-54
2024/01/06 03:25:34;;;;;;;17.30;5.77;;;6.10;99.90;;;;;;5033215;28;20033;-54
2024/01/06 03:28:00;;;;;;;20.90;5.97;;;6.00;99.90;;;;;;5033052;28;20429;-55
2024/01/06 03:30:26;;;;;;;14.63;5.33;;;6.00;99.90;;;;;;5032759;28;20481;-53
2024/01/06 03:32:51;;;;;;;14.70;5.50;;;5.90;99.90;;;;;;5032761;28;20021;-56
2024/01/06 03:35:17;;;;;;;14.87;5.50;;;5.90;99.90;;;;;;5032782;28;20486;-56
2024/01/06 03:37:43;;;;;;;13.63;5.27;;;5.80;99.90;;;;;;5032930;28;20029;-53
2024/01/06 03:40:09;;;;;;;12.13;5.10;;;5.80;99.90;;;;;;5032602;28;20441;-56
2024/01/06 03:42:36;;;;;;;14.13;4.97;;;5.70;99.90;;;;;;5032671;28;20048;-51
2024/01/06 03:45:02;;;;;;;12.70;4.87;;;5.70;99.90;;;;;;5031447;28;20037;-50
2024/01/06 03:47:28;;;;;;;11.67;4.50;;;5.60;99.90;;;;;;5032528;28;20452;-55
2024/01/06 03:49:53;;;;;;;12.30;4.47;;;5.60;99.90;;;;;;5031511;28;20221;-56
2024/01/06 03:52:19;;;;;;;10.67;4.10;;;5.60;99.90;;;;;;5032549;28;20565;-52
2024/01/06 03:54:45;;;;;;;9.40;3.70;;;5.60;99.90;;;;;;5032360;28;20037;-56
2024/01/06 03:57:10;;;;;;;13.43;4.83;;;5.60;99.90;;;;;;5032466;28;20030;-56
2024/01/06 03:59:36;;;;;;;10.20;3.97;;;5.50;99.90;;;;;;5032237;28;20026;-50
2024/01/06 04:02:01;;;;;;;10.37;3.53;;;5.50;99.90;;;;;;5032261;28;20029;-56
2024/01/06 04:04:27;;;;;;;9.63;3.30;;;5.50;99.90;;;;;;5032396;28;20038;-51
2024/01/06 04:06:53;;;;;;;9.73;3.80;;;5.50;99.90;;;;;;5032493;28;20025;-56
2024/01/06 04:09:18;;;;;;;10.87;3.93;;;5.40;99.90;;;;;;5030852;28;20063;-56
2024/01/06 04:11:44;;;;;;;8.17;3.57;;;5.50;99.90;;;;;;5032178;28;20025;-56
2024/01/06 04:14:09;;;;;;;9.53;3.47;;;5.50;99.90;;;;;;5032153;28;20038;-54
2024/01/06 04:16:35;;;;;;;10.40;4.23;;;5.50;99.90;;;;;;5032026;28;20516;-51
2024/01/06 04:19:00;;;;;;;10.87;4.93;;;5.40;99.90;;;;;;5030991;28;20037;-56
2024/01/06 04:21:26;;;;;;;10.40;4.47;;;5.40;99.90;;;;;;5032077;28;20021;-53
2024/01/06 04:23:52;;;;;;;11.30;3.90;;;5.40;99.90;;;;;;5031995;28;20029;-56
2024/01/06 04:26:17;;;;;;;11.93;3.93;;;5.40;99.90;;;;;;5032070;28;20075;-55
2024/01/06 04:28:43;;;;;;;9.03;3.80;;;5.40;99.90;;;;;;5031709;28;20025;-54
2024/01/06 04:31:09;;;;;;;10.30;3.83;;;5.40;99.90;;;;;;5031882;28;20482;-53
2024/01/06 04:33:36;;;;;;;11.10;4.20;;;5.50;99.90;;;;;;5031858;28;20029;-54
2024/01/06 04:36:01;;;;;;;10.87;3.83;;;5.50;99.90;;;;;;5031867;28;20087;-55
2024/01/06 04:38:27;;;;;;;9.23;3.20;;;5.50;99.90;;;;;;5031866;28;20021;-54
2024/01/06 04:40:53;;;;;;;8.47;3.67;;;5.40;99.90;;;;;;5031817;28;20475;-55
2024/01/06 04:43:18;;;;;;;10.27;3.63;;;5.50;99.90;;;;;;5031859;28;20029;-55
2024/01/06 04:45:44;;;;;;;9.90;3.97;;;5.40;99.90;;;;;;5031880;28;20044;-55
2024/01/06 04:48:09;;;;;;;11.27;4.37;;;5.50;99.90;;;;;;5031713;28;20034;-54
2024/01/06 04:50:35;;;;;;;10.60;4.10;;;5.50;99.90;;;;;;5031650;28;20082;-56
2024/01/06 04:53:01;;;;;;;10.80;4.27;;;5.40;99.90;;;;;;5030461;28;20398;-56
2024/01/06 04:55:26;;;;;;;12.47;4.87;;;5.40;99.90;;;;;;5031774;28;20029;-56
2024/01/06 04:57:52;;;;;;;11.23;4.57;;;5.40;99.90;;;;;;5031716;28;20030;-52
2024/01/06 05:00:17;;;;;;;11.20;4.33;;;5.40;99.90;;;;;;5031505;28;20057;-55
2024/01/06 05:02:44;;;;;;;12.73;4.57;;;5.40;99.90;;;;;;5031491;28;20037;-56
2024/01/06 05:05:09;;;;;;;10.43;4.13;;;5.40;99.90;;;;;;5031704;28;20036;-56
2024/01/06 05:07:35;;;;;;;15.47;4.90;;;5.40;99.90;;;;;;5031658;28;20120;-52
2024/01/06 05:10:00;;;;;;;12.87;4.23;;;5.30;99.90;;;;;;5031376;28;20026;-51
2024/01/06 05:12:26;;;;;;;11.07;4.37;;;5.30;99.90;;;;;;5031633;28;20104;-53
2024/01/06 05:14:51;;;;;;;11.53;4.47;;;5.30;99.90;;;;;;5031453;28;20038;-55
2024/01/06 05:17:17;;;;;;;12.63;4.60;;;5.30;99.90;;;;;;5031479;28;20101;-56
2024/01/06 05:19:43;;;;;;;14.33;4.93;;;5.30;99.90;;;;;;5031389;28;20049;-53
2024/01/06 05:22:08;;;;;;;10.93;4.20;;;5.30;99.90;;;;;;5030271;28;20493;-54
2024/01/06 05:24:34;;;;;;;11.77;4.90;;;5.30;99.90;;;;;;5031462;28;20037;-55
2024/01/06 05:26:59;;;;;;;14.37;5.57;;;5.30;99.90;;;;;;5031561;28;20036;-54
2024/01/06 05:29:26;;;;;;;14.70;5.57;;;5.30;99.90;;;;;;5032758;28;20029;-52
2024/01/06 05:31:52;;;;;;;15.50;5.77;;;5.30;99.90;;;;;;5035058;28;20073;-55
2024/01/06 05:34:17;;;;;;;18.67;6.70;;;5.20;99.90;;;;;;5035023;28;20025;-54
2024/01/06 05:36:43;;;;;;;16.67;6.13;;;5.20;99.90;;;;;;5035277;28;20474;-55
2024/01/06 05:39:09;;;;;;;16.03;6.17;;;5.20;99.90;;;;;;5034814;28;20021;-51
2024/01/06 05:41:39;;;;;;;18.77;6.47;;;5.20;99.90;;;;;;5034998;28;20041;-55
2024/01/06 05:44:05;;;;;;;15.23;6.20;;;5.10;99.90;;;;;;5034959;28;20030;-54
2024/01/06 05:46:31;;;;;;;17.20;6.70;;;5.20;99.90;;;;;;5034867;28;20159;-55
2024/01/06 05:48:56;;;;;;;15.60;6.37;;;5.20;99.90;;;;;;5034650;28;20108;-54
2024/01/06 05:51:22;;;;;;;16.83;6.37;;;5.10;99.90;;;;;;5034799;28;20037;-54
2024/01/06 05:53:48;;;;;;;18.90;6.93;;;5.20;99.90;;;;;;5034745;28;20033;-55
2024/01/06 05:56:25;;;;;;;18.87;6.73;;;5.20;99.90;;;;;;5034773;28;20052;-55
2024/01/06 05:58:50;;;;;;;18.83;6.33;;;5.20;99.90;;;;;;5034379;28;20033;-54
2024/01/06 06:01:16;;;;;;;17.03;6.53;;;5.20;99.90;;;;;;5034628;28;20036;-55
2024/01/06 06:03:43;;;;;;;15.83;6.63;;;5.20;99.90;;;;;;5034566;28;20482;-55
2024/01/06 06:06:08;;;;;;;14.70;5.77;;;5.20;99.90;;;;;;5034583;28;20034;-54
2024/01/06 06:08:34;;;;;;;13.50;5.20;;;5.20;99.90;;;;;;5034218;28;20033;-54
2024/01/06 06:11:01;;;;;;;15.87;5.40;;;5.20;99.90;;;;;;5034493;28;20030;-55
2024/01/06 06:13:31;;;;;;;13.53;4.93;;;5.20;99.90;;;;;;5034317;28;20111;-53
2024/01/06 06:15:57;;;;;;;17.10;5.50;;;5.10;99.90;;;;;;5034321;28;20490;-55
2024/01/06 06:18:23;;;;;;;12.23;4.50;;;5.10;99.90;;;;;;5032925;28;20045;-53
2024/01/06 06:20:48;;;;;;;15.53;5.00;;;5.10;99.90;;;;;;5034274;28;20231;-54
2024/01/06 06:23:14;;;;;;;11.70;4.50;;;5.00;99.90;;;;;;5034199;28;20393;-54
2024/01/06 06:25:40;;;;;;;16.57;5.43;;;5.00;99.90;;;;;;5034748;28;20036;-55
2024/01/06 06:28:06;;;;;;;14.07;5.43;;;5.00;99.90;;;;;;5034138;28;20044;-55
2024/01/06 06:30:32;;;;;;;14.90;5.00;;;5.00;99.90;;;;;;5033846;28;20043;-55
2024/01/06 06:32:58;;;;;;;12.87;4.83;;;5.00;99.90;;;;;;5034058;28;20033;-55
2024/01/06 06:35:24;;;;;;;13.77;4.97;;;5.00;99.90;;;;;;5033986;28;20033;-55
2024/01/06 06:37:50;;;;;;;14.00;5.40;;;5.00;99.90;;;;;;5033938;28;20025;-50
2024/01/06 06:40:15;;;;;;;15.30;5.90;;;5.00;99.90;;;;;;5033087;28;20041;-54
2024/01/06 06:42:41;;;;;;;15.67;6.03;;;5.10;99.90;;;;;;5033555;28;20030;-52
2024/01/06 06:45:07;;;;;;;15.17;5.63;;;5.00;99.90;;;;;;5032599;28;20033;-55
2024/01/06 06:47:33;;;;;;;15.53;6.10;;;5.00;99.90;;;;;;5033827;28;20095;-54
2024/01/06 06:49:58;;;;;;;15.90;6.40;;;5.00;99.90;;;;;;5033583;28;20034;-52
2024/01/06 06:52:24;;;;;;;15.63;5.63;;;5.00;99.90;;;;;;5032369;28;20124;-52
2024/01/06 06:54:51;;;;;;;11.40;4.80;;;4.90;99.90;;;;;;5033579;28;20661;-54
2024/01/06 06:57:17;;;;;;;12.90;4.80;;;5.00;99.90;;;;;;5033590;28;20044;-52
2024/01/06 06:59:43;;;;;;;14.27;4.93;;;5.00;99.90;;;;;;5033326;28;20033;-54
2024/01/06 07:02:09;;;;;;;14.07;5.60;;;4.90;99.90;;;;;;5033512;28;20021;-55
2024/01/06 07:04:34;;;;;;;11.20;4.57;;;4.90;99.90;;;;;;5033702;28;20031;-55
2024/01/06 07:07:00;;;;;;;11.37;4.13;;;4.90;99.90;;;;;;5033501;28;20021;-54
2024/01/06 07:09:26;;;;;;;11.13;4.80;;;4.80;99.90;;;;;;5033145;28;20132;-53
2024/01/06 07:11:51;;;;;;;12.80;4.77;;;4.80;99.90;;;;;;5033264;28;20029;-54
2024/01/06 07:14:17;;;;;;;14.37;5.20;;;4.90;99.90;;;;;;5033151;28;20387;-54
2024/01/06 07:16:43;;;;;;;18.00;6.77;;;4.80;99.90;;;;;;5032122;28;20121;-52
2024/01/06 07:19:08;;;;;;;15.20;5.83;;;4.80;99.90;;;;;;5032957;28;20406;-51
2024/01/06 07:21:34;;;;;;;14.13;4.83;;;4.80;99.90;;;;;;5033189;28;20068;-54
2024/01/06 07:24:01;;;;;;;20.53;7.30;;;4.80;99.90;;;;;;5033122;28;20056;-53
2024/01/06 07:26:27;;;;;;;26.20;8.43;;;4.80;99.90;;;;;;5033070;28;20065;-51
2024/01/06 07:28:53;;;;;;;23.83;9.07;;;4.80;99.90;;;;;;5032792;28;20069;-55
2024/01/06 07:31:18;;;;;;;22.23;6.50;;;4.70;99.90;;;;;;5031655;28;20057;-49
2024/01/06 07:33:44;;;;;;;15.77;5.80;;;4.70;99.90;;;;;;5032925;28;20026;-52
2024/01/06 07:36:10;;;;;;;16.20;5.77;;;4.60;99.90;;;;;;5032856;28;20068;-54
2024/01/06 07:38:36;;;;;;;14.13;5.80;;;4.60;99.90;;;;;;5032563;28;20529;-50
2024/01/06 07:41:04;;;;;;;15.63;4.97;;;4.60;99.90;;;;;;5032725;28;20025;-53
2024/01/06 07:43:30;;;;;;;12.73;5.10;;;4.60;99.90;;;;;;5032620;28;20040;-54
2024/01/06 07:45:56;;;;;;;14.93;5.87;;;4.60;99.90;;;;;;5032639;28;20038;-52
2024/01/06 07:48:21;;;;;;;18.53;5.73;;;4.60;99.90;;;;;;5032824;28;20025;-54
2024/01/06 07:50:47;;;;;;;18.43;6.10;;;4.50;99.90;;;;;;5032378;28;20049;-54
2024/01/06 07:53:13;;;;;;;16.50;5.03;;;4.60;99.90;;;;;;5032674;28;20525;-53
2024/01/06 07:55:40;;;;;;;15.80;4.97;;;4.50;99.90;;;;;;5032404;28;20478;-53
2024/01/06 07:58:05;;;;;;;14.27;5.40;;;4.60;99.90;;;;;;5032418;28;20095;-54
2024/01/06 08:00:31;;;;;;;18.03;5.70;;;4.60;99.90;;;;;;5032238;28;20479;-55
2024/01/06 08:02:57;;;;;;;18.27;5.73;;;4.50;99.90;;;;;;5032511;28;20029;-54
2024/01/06 08:05:22;;;;;;;11.40;4.20;;;4.50;99.90;;;;;;5032376;28;20060;-53
2024/01/06 08:07:50;;;;;;;13.97;5.43;;;4.50;99.90;;;;;;5032256;28;20029;-51
2024/01/06 08:10:16;;;;;;;14.93;5.77;;;4.40;99.90;;;;;;5032107;28;20108;-53
2024/01/06 08:12:42;;;;;;;16.67;5.50;;;4.50;99.90;;;;;;5032143;28;20514;-53
2024/01/06 08:15:09;;;;;;;16.13;5.27;;;4.50;99.90;;;;;;5032175;28;20041;-53
2024/01/06 08:17:35;;;;;;;16.90;6.43;;;4.50;99.90;;;;;;5032187;28;20100;-52
2024/01/06 08:20:01;;;;;;;16.57;6.20;;;4.50;99.90;;;;;;5032219;28;20033;-50
2024/01/06 08:22:27;;;;;;;16.77;6.07;;;4.40;99.90;;;;;;5032043;28;20021;-52
2024/01/06 08:24:52;;;;;;;20.83;6.43;;;4.40;99.90;;;;;;5032164;28;20544;-51
2024/01/06 08:27:18;;;;;;;22.00;7.73;;;4.40;99.90;;;;;;5032046;28;20032;-53
2024/01/06 08:29:44;;;;;;;25.53;8.63;;;4.40;99.90;;;;;;5031870;28;20140;-53
2024/01/06 08:32:11;;;;;;;26.60;8.70;;;4.40;99.90;;;;;;5030732;28;20120;-55
2024/01/06 08:34:36;;;;;;;28.87;8.90;;;4.40;99.90;;;;;;5032015;28;20030;-56
2024/01/06 08:37:03;;;;;;;28.73;9.90;;;4.30;99.90;;;;;;5031929;28;20033;-54
2024/01/06 08:39:29;;;;;;;32.00;11.27;;;4.30;99.90;;;;;;5031651;28;20044;-51
2024/01/06 08:41:55;;;;;;;34.93;9.93;;;4.30;99.90;;;;;;5030650;28;20026;-53
2024/01/06 08:44:20;;;;;;;31.93;10.33;;;4.30;99.90;;;;;;5031901;28;20500;-55
2024/01/06 08:46:46;;;;;;;28.37;9.73;;;4.30;99.90;;;;;;5031863;28;20132;-53
2024/01/06 08:49:11;;;;;;;35.13;10.40;;;4.20;99.90;;;;;;5031607;28;20498;-55
2024/01/06 08:51:37;;;;;;;28.97;9.27;;;4.20;99.90;;;;;;5031815;28;20032;-54
2024/01/06 08:54:05;;;;;;;34.60;10.37;;;4.20;99.90;;;;;;5031798;28;20022;-51
2024/01/06 08:56:30;;;;;;;32.17;11.17;;;4.10;99.90;;;;;;5031821;28;20213;-55
2024/01/06 08:58:57;;;;;;;34.63;10.57;;;4.10;99.90;;;;;;5031567;28;20485;-53
2024/01/06 09:01:22;;;;;;;29.47;9.50;;;4.10;99.90;;;;;;5031713;28;20075;-53
2024/01/06 09:03:49;;;;;;;35.13;10.80;;;4.10;99.90;;;;;;5032349;28;20096;-54
2024/01/06 09:06:15;;;;;;;36.50;10.63;;;4.00;99.90;;;;;;5035686;28;20033;-54
2024/01/06 09:08:41;;;;;;;35.67;11.37;;;4.00;99.90;;;;;;5035430;28;20063;-53
2024/01/06 09:11:06;;;;;;;32.00;10.43;;;4.00;99.90;;;;;;5035604;28;20030;-49
2024/01/06 09:13:32;;;;;;;33.63;10.97;;;4.00;99.90;;;;;;5035791;28;20061;-54
2024/01/06 09:15:59;;;;;;;31.03;9.77;;;4.00;99.90;;;;;;5035921;28;20026;-50
2024/01/06 09:18:26;;;;;;;33.90;10.40;;;4.00;99.90;;;;;;5035405;28;20057;-54
2024/01/06 09:20:52;;;;;;;29.97;9.47;;;4.00;99.90;;;;;;5035178;28;20029;-50
2024/01/06 09:23:17;;;;;;;32.90;9.50;;;3.90;99.90;;;;;;5035325;28;20044;-54
2024/01/06 09:25:43;;;;;;;25.97;8.73;;;3.90;99.90;;;;;;5035239;28;20040;-53
2024/01/06 09:28:09;;;;;;;28.87;9.40;;;4.00;99.90;;;;;;5034008;28;20033;-53
2024/01/06 09:30:34;;;;;;;25.87;8.33;;;3.90;99.90;;;;;;5035092;28;20044;-51
2024/01/06 09:33:00;;;;;;;28.43;8.83;;;3.90;99.90;;;;;;5035168;28;20022;-53
2024/01/06 09:35:25;;;;;;;28.63;9.13;;;3.90;99.90;;;;;;5034993;28;20033;-53
2024/01/06 09:37:51;;;;;;;27.17;8.63;;;3.90;99.90;;;;;;5035086;28;20029;-55
2024/01/06 09:40:22;;;;;;;24.90;8.17;;;3.90;99.90;;;;;;5034828;28;20467;-55
2024/01/06 09:42:49;;;;;;;26.80;8.80;;;3.90;99.90;;;;;;5034965;28;20025;-54
2024/01/06 09:45:15;;;;;;;21.50;7.17;;;3.80;99.90;;;;;;5034972;28;20451;-55
2024/01/06 09:47:41;;;;;;;23.90;7.57;;;3.80;99.90;;;;;;5034880;28;20086;-53
2024/01/06 09:50:09;;;;;;;23.97;7.57;;;3.90;99.90;;;;;;5034635;28;20447;-56
2024/01/06 09:52:43;;;;;;;20.43;6.70;;;3.90;99.90;;;;;;5034799;28;20060;-54
2024/01/06 09:55:12;;;;;;;22.90;6.93;;;3.90;99.90;;;;;;5033387;28;20037;-53
2024/01/06 09:57:38;;;;;;;34.78;10.77;;;3.90;99.90;;;;;;5034718;28;20025;-51
2024/01/06 10:00:05;;;;;;;26.70;9.73;;;3.90;99.90;;;;;;5034590;28;20045;-54
2024/01/06 10:02:37;;;;;;;16.80;6.37;;;3.90;99.90;;;;;;5034977;28;20037;-54
2024/01/06 10:05:03;;;;;;;18.40;6.63;;;3.90;99.90;;;;;;5034676;28;20589;-53
2024/01/06 10:07:29;;;;;;;17.70;5.37;;;3.90;99.90;;;;;;5034578;28;20030;-50
2024/01/06 10:09:55;;;;;;;20.93;7.50;;;3.80;99.90;;;;;;5034318;28;20041;-53
2024/01/06 10:12:28;;;;;;;16.70;5.73;;;3.80;99.90;;;;;;5034435;28;20026;-53
2024/01/06 10:14:53;;;;;;;17.90;5.70;;;3.90;99.90;;;;;;5033743;28;20083;-52
2024/01/06 10:17:19;;;;;;;18.20;5.73;;;3.90;99.90;;;;;;5033617;28;20530;-52
2024/01/06 10:19:45;;;;;;;15.80;5.23;;;3.90;99.90;;;;;;5034052;28;20040;-55
2024/01/06 10:22:11;;;;;;;18.97;5.80;;;3.90;99.90;;;;;;5034276;28;20025;-53
2024/01/06 10:24:40;;;;;;;14.70;5.57;;;3.80;99.90;;;;;;5034289;28;20032;-53
2024/01/06 10:27:06;;;;;;;14.83;5.87;;;3.80;99.90;;;;;;5034231;28;20083;-52
2024/01/06 10:29:32;;;;;;;16.17;5.27;;;3.70;99.90;;;;;;5033866;28;20885;-56
2024/01/06 10:31:58;;;;;;;16.93;6.23;;;3.70;99.90;;;;;;5033945;28;20029;-52
2024/01/06 10:34:24;;;;;;;17.03;5.23;;;3.60;99.90;;;;;;5034027;28;20028;-55
2024/01/06 10:36:53;;;;;;;16.10;4.83;;;3.60;99.90;;;;;;5033999;28;20045;-52
2024/01/06 10:39:20;;;;;;;14.45;5.82;;;3.60;99.90;;;;;;5033673;28;20091;-55
2024/01/06 10:41:48;;;;;;;13.50;5.00;;;3.70;99.90;;;;;;5033852;28;20398;-52
2024/01/06 10:44:15;;;;;;;16.00;5.70;;;3.70;99.90;;;;;;5033765;28;20040;-53
2024/01/06 10:46:41;;;;;;;16.07;5.60;;;3.60;99.90;;;;;;5033899;28;20042;-51
2024/01/06 10:49:10;;;;;;;15.93;5.87;;;3.60;99.90;;;;;;5033625;28;20026;-52
2024/01/06 10:51:40;;;;;;;17.43;5.47;;;3.70;99.90;;;;;;5033691;28;20576;-52
2024/01/06 10:54:06;;;;;;;18.83;6.63;;;3.60;99.90;;;;;;5033659;28;20045;-50
2024/01/06 10:56:36;;;;;;;22.40;5.63;;;3.60;99.90;;;;;;5033565;28;20087;-50
2024/01/06 10:59:03;;;;;;;23.87;7.27;;;3.60;99.90;;;;;;5033533;28;20033;-50
2024/01/06 11:01:29;;;;;;;23.03;7.20;;;3.50;99.90;;;;;;5032313;28;20057;-55
2024/01/06 11:03:55;;;;;;;24.20;7.57;;;3.50;99.90;;;;;;5033849;28;20029;-53
2024/01/06 11:06:21;;;;;;;26.73;8.40;;;3.50;99.90;;;;;;5033432;28;20079;-50
2024/01/06 11:09:08;;;;;;;30.87;8.80;;;3.40;99.90;;;;;;5033036;28;20037;-49
2024/01/06 11:11:36;;;;;;;28.77;9.80;;;3.50;99.90;;;;;;5033269;28;20033;-51
2024/01/06 11:14:25;;;;;;;24.37;8.53;;;3.40;99.90;;;;;;5033376;28;20104;-52
2024/01/06 11:16:52;;;;;;;24.00;7.88;;;3.40;99.90;;;;;;5031984;28;20057;-53
2024/01/06 11:19:33;;;;;;;30.03;8.97;;;3.40;99.90;;;;;;5031721;28;20033;-50
2024/01/06 11:22:39;;;;;;;35.30;10.33;;;3.40;99.90;;;;;;5032989;28;20057;-51
2024/01/06 11:25:13;;;;;;;32.77;9.07;;;3.40;99.90;;;;;;4972003;28;20068;-51
2024/01/06 11:27:41;;;;;;;33.20;10.97;;;3.40;99.90;;;;;;4972040;28;20042;-53
2024/01/06 11:30:18;;;;;;;43.37;11.67;;;3.40;99.90;;;;;;4988841;28;20131;-50
2024/01/06 11:32:46;;;;;;;33.07;9.23;;;3.40;99.90;;;;;;5032914;28;20112;-51
2024/01/06 11:35:16;;;;;;;30.93;9.20;;;3.40;99.90;;;;;;5032845;28;20037;-52
2024/01/06 11:37:41;;;;;;;31.25;9.30;;;3.40;99.90;;;;;;5032704;28;20034;-52
2024/01/06 11:40:28;;;;;;;26.10;8.20;;;3.40;99.90;;;;;;5032412;28;20028;-53
2024/01/06 11:43:08;;;;;;;23.97;6.67;;;3.40;99.90;;;;;;5032765;28;20033;-51
2024/01/06 11:45:36;;;;;;;24.23;7.83;;;3.50;99.90;;;;;;5032797;28;20033;-54
2024/01/06 11:48:06;;;;;;;25.23;8.23;;;3.50;99.90;;;;;;5032677;28;20116;-53
2024/01/06 11:50:34;;;;;;;22.33;7.40;;;3.50;99.90;;;;;;5032624;28;20071;-51
2024/01/06 11:53:00;;;;;;;24.57;7.83;;;3.50;99.90;;;;;;5032395;28;20044;-53
2024/01/06 11:55:27;;;;;;;25.80;8.10;;;3.60;99.90;;;;;;5032450;28;20055;-50
2024/01/06 11:57:57;;;;;;;21.93;7.17;;;3.50;99.90;;;;;;5032461;28;20083;-51
2024/01/06 12:00:23;;;;;;;23.27;7.97;;;3.50;99.90;;;;;;5032319;28;20044;-50
2024/01/06 12:02:49;;;;;;;25.83;8.53;;;3.50;99.90;;;;;;5032385;28;20026;-51
2024/01/06 12:05:17;;;;;;;26.03;8.30;;;3.40;99.90;;;;;;5032429;28;20482;-54
2024/01/06 12:07:53;;;;;;;24.73;7.40;;;3.30;99.90;;;;;;5032291;28;20040;-55
2024/01/06 12:10:21;;;;;;;27.43;7.67;;;3.40;99.90;;;;;;5032160;28;20120;-50
2024/01/06 12:13:01;;;;;;;24.60;7.90;;;3.30;99.90;;;;;;5032544;28;20037;-54
2024/01/06 12:15:27;;;;;;;;;;;3.30;99.90;;;;;;5032875;28;20038;-53
2024/01/06 12:17:52;;;;;;;29.40;7.83;;;3.30;99.90;;;;;;5032119;28;19956;-54
2024/01/06 12:20:18;;;;;;;31.20;8.60;;;3.30;99.90;;;;;;5031890;28;20446;-54
2024/01/06 12:22:44;;;;;;;26.97;8.63;;;3.30;99.90;;;;;;5032010;28;20390;-55
2024/01/06 12:25:10;;;;;;;33.27;10.03;;;3.20;99.90;;;;;;5032056;28;20033;-50
2024/01/06 12:27:40;;;;;;;23.27;7.33;;;3.20;99.90;;;;;;5032135;28;20386;-54
2024/01/06 12:30:15;;;;;;;19.50;6.83;;;3.30;99.90;;;;;;5032342;28;20034;-53
2024/01/06 12:32:42;;;;;;;25.77;7.40;;;3.30;99.90;;;;;;5031846;28;20032;-54
2024/01/06 12:35:08;;;;;;;23.77;7.30;;;3.20;99.90;;;;;;5031990;28;20678;-51
2024/01/06 12:37:35;;;;;;;25.67;8.17;;;3.20;99.90;;;;;;5030617;28;20453;-53
2024/01/06 12:40:01;;;;;;;22.03;7.27;;;3.20;99.90;;;;;;5031017;28;20036;-52
2024/01/06 12:42:27;;;;;;;29.07;8.47;;;3.20;99.90;;;;;;5031777;28;20026;-53